createdAt,value
2018-04-08T00:00:40.361Z,44.42
2018-04-08T00:01:40.389Z,44.39
2018-04-08T00:02:40.327Z,44.4
2018-04-08T00:03:40.391Z,44.43
2018-04-08T00:04:40.386Z,44.39
2018-04-08T00:05:40.344Z,44.44
2018-04-08T00:06:40.614Z,44.41
2018-04-08T00:07:40.353Z,44.39
2018-04-08T00:08:40.365Z,44.39
2018-04-08T00:09:40.371Z,44.41
2018-04-08T00:10:40.373Z,44.39
2018-04-08T00:11:40.387Z,44.4
2018-04-08T00:12:40.317Z,44.4
2018-04-08T00:13:40.354Z,44.41
2018-04-08T00:14:40.321Z,44.4
2018-04-08T00:15:40.372Z,44.39
2018-04-08T00:16:40.377Z,44.41
2018-04-08T00:17:40.375Z,44.43
2018-04-08T00:18:40.370Z,44.41
2018-04-08T00:19:40.345Z,44.43
2018-04-08T00:20:40.353Z,44.39
2018-04-08T00:21:40.359Z,44.43
2018-04-08T00:22:40.377Z,44.39
2018-04-08T00:23:40.388Z,44.38
2018-04-08T00:24:40.346Z,44.42
2018-04-08T00:25:40.363Z,44.4
2018-04-08T00:26:40.358Z,44.36
2018-04-08T00:27:40.357Z,44.4
2018-04-08T00:28:40.349Z,44.4
2018-04-08T00:29:40.355Z,44.37
2018-04-08T00:30:40.344Z,44.41
2018-04-08T00:31:40.357Z,44.42
2018-04-08T00:32:40.411Z,44.4
2018-04-08T00:33:40.334Z,44.4
2018-04-08T00:34:40.431Z,44.4
2018-04-08T00:35:40.474Z,44.4
2018-04-08T00:36:40.324Z,44.41
2018-04-08T00:37:40.331Z,44.37
2018-04-08T00:38:40.348Z,44.36
2018-04-08T00:39:40.347Z,44.41
2018-04-08T00:40:40.342Z,44.37
2018-04-08T00:41:40.307Z,44.41
2018-04-08T00:42:40.353Z,44.41
2018-04-08T00:43:40.371Z,44.46
2018-04-08T00:44:40.378Z,44.4
2018-04-08T00:45:40.359Z,44.37
2018-04-08T00:46:40.346Z,44.41
2018-04-08T00:47:40.341Z,44.44
2018-04-08T00:48:40.377Z,44.41
2018-04-08T00:49:40.382Z,44.38
2018-04-08T00:50:40.482Z,44.42
2018-04-08T00:51:40.356Z,44.39
2018-04-08T00:52:40.341Z,44.38
2018-04-08T00:53:40.322Z,44.43
2018-04-08T00:54:40.338Z,44.44
2018-04-08T00:55:40.346Z,44.43
2018-04-08T00:56:40.365Z,44.41
2018-04-08T00:57:40.373Z,44.43
2018-04-08T00:58:40.335Z,44.39
2018-04-08T00:59:40.360Z,44.38
2018-04-08T01:00:40.374Z,44.43
2018-04-08T01:01:40.330Z,44.43
2018-04-08T01:02:40.307Z,44.41
2018-04-08T01:03:40.359Z,44.39
2018-04-08T01:04:40.343Z,44.42
2018-04-08T01:05:40.348Z,44.39
2018-04-08T01:06:40.368Z,44.43
2018-04-08T01:07:40.341Z,44.45
2018-04-08T01:08:40.346Z,44.39
2018-04-08T01:09:40.334Z,44.45
2018-04-08T01:10:40.352Z,44.43
2018-04-08T01:11:40.339Z,44.42
2018-04-08T01:12:40.354Z,44.4
2018-04-08T01:13:40.370Z,44.46
2018-04-08T01:14:40.337Z,44.43
2018-04-08T01:15:40.326Z,44.43
2018-04-08T01:16:40.398Z,44.44
2018-04-08T01:17:40.359Z,44.42
2018-04-08T01:18:40.329Z,44.38
2018-04-08T01:19:40.357Z,44.43
2018-04-08T01:20:40.351Z,44.42
2018-04-08T01:21:40.339Z,44.42
2018-04-08T01:22:40.433Z,44.42
2018-04-08T01:23:40.329Z,44.42
2018-04-08T01:24:40.343Z,44.42
2018-04-08T01:25:40.350Z,44.43
2018-04-08T01:26:40.424Z,44.39
2018-04-08T01:27:40.334Z,44.43
2018-04-08T01:28:40.379Z,44.41
2018-04-08T01:29:40.348Z,44.35
2018-04-08T01:30:40.354Z,44.39
2018-04-08T01:31:40.344Z,44.38
2018-04-08T01:32:40.323Z,44.37
2018-04-08T01:33:40.308Z,44.36
2018-04-08T01:34:40.346Z,44.41
2018-04-08T01:35:40.348Z,44.41
2018-04-08T01:36:40.339Z,44.39
2018-04-08T01:37:40.337Z,44.39
2018-04-08T01:38:40.341Z,44.39
2018-04-08T01:39:40.324Z,44.43
2018-04-08T01:40:40.324Z,44.4
2018-04-08T01:41:40.332Z,44.36
2018-04-08T01:42:40.328Z,44.37
2018-04-08T01:43:40.302Z,44.41
2018-04-08T01:44:40.336Z,44.41
2018-04-08T01:45:40.320Z,44.38
2018-04-08T01:46:40.327Z,44.39
2018-04-08T01:47:40.332Z,44.4
2018-04-08T01:48:40.306Z,44.43
2018-04-08T01:49:40.316Z,44.37
2018-04-08T01:50:40.350Z,44.41
2018-04-08T01:51:40.323Z,44.37
2018-04-08T01:52:40.349Z,44.37
2018-04-08T01:53:40.279Z,44.37
2018-04-08T01:54:40.311Z,44.4
2018-04-08T01:55:40.324Z,44.43
2018-04-08T01:56:40.332Z,44.36
2018-04-08T01:57:40.363Z,44.41
2018-04-08T01:58:40.309Z,44.42
2018-04-08T01:59:40.287Z,44.4
2018-04-08T02:00:40.294Z,44.37
2018-04-08T02:01:40.332Z,44.41
2018-04-08T02:02:40.316Z,44.41
2018-04-08T02:03:40.331Z,44.37
2018-04-08T02:04:40.318Z,44.41
2018-04-08T02:05:40.281Z,44.37
2018-04-08T02:06:40.299Z,44.38
2018-04-08T02:07:40.314Z,44.37
2018-04-08T02:08:40.329Z,44.34
2018-04-08T02:09:40.326Z,44.34
2018-04-08T02:10:40.298Z,44.36
2018-04-08T02:11:40.282Z,44.42
2018-04-08T02:12:40.331Z,44.41
2018-04-08T02:13:40.301Z,44.42
2018-04-08T02:14:40.309Z,44.37
2018-04-08T02:15:40.307Z,44.32
2018-04-08T02:16:40.303Z,44.37
2018-04-08T02:17:40.354Z,44.34
2018-04-08T02:18:40.326Z,44.35
2018-04-08T02:19:40.364Z,44.39
2018-04-08T02:20:40.347Z,44.4
2018-04-08T02:21:40.363Z,44.38
2018-04-08T02:22:40.316Z,44.36
2018-04-08T02:23:40.326Z,44.37
2018-04-08T02:24:40.381Z,44.37
2018-04-08T02:25:40.305Z,44.34
2018-04-08T02:26:40.286Z,44.32
2018-04-08T02:27:40.314Z,44.35
2018-04-08T02:28:40.318Z,44.39
2018-04-08T02:29:40.316Z,44.34
2018-04-08T02:30:40.328Z,44.38
2018-04-08T02:31:40.309Z,44.37
2018-04-08T02:32:40.324Z,44.36
2018-04-08T02:33:40.278Z,44.37
2018-04-08T02:34:40.320Z,44.41
2018-04-08T02:35:40.421Z,44.37
2018-04-08T02:36:40.405Z,44.38
2018-04-08T02:37:40.329Z,44.33
2018-04-08T02:38:40.319Z,44.37
2018-04-08T02:39:40.420Z,44.33
2018-04-08T02:40:40.322Z,44.35
2018-04-08T02:41:40.335Z,44.37
2018-04-08T02:42:40.285Z,44.38
2018-04-08T02:43:40.362Z,44.41
2018-04-08T02:44:40.302Z,44.36
2018-04-08T02:45:40.298Z,44.37
2018-04-08T02:46:40.323Z,44.38
2018-04-08T02:47:40.336Z,44.38
2018-04-08T02:48:40.345Z,44.33
2018-04-08T02:49:40.315Z,44.4
2018-04-08T02:50:40.347Z,44.37
2018-04-08T02:51:40.300Z,44.34
2018-04-08T02:52:40.349Z,44.39
2018-04-08T02:53:40.376Z,44.38
2018-04-08T02:54:40.352Z,44.33
2018-04-08T02:55:40.357Z,44.31
2018-04-08T02:56:40.343Z,44.35
2018-04-08T02:57:40.352Z,44.35
2018-04-08T02:58:40.292Z,44.4
2018-04-08T02:59:40.307Z,44.33
2018-04-08T03:00:40.364Z,44.37
2018-04-08T03:01:40.336Z,44.37
2018-04-08T03:02:40.309Z,44.34
2018-04-08T03:03:40.326Z,44.39
2018-04-08T03:04:40.344Z,44.38
2018-04-08T03:05:40.341Z,44.38
2018-04-08T03:06:40.324Z,44.37
2018-04-08T03:07:40.348Z,44.39
2018-04-08T03:08:40.370Z,44.37
2018-04-08T03:09:40.340Z,44.41
2018-04-08T03:10:40.307Z,44.37
2018-04-08T03:11:40.360Z,44.37
2018-04-08T03:12:40.290Z,44.39
2018-04-08T03:13:40.135Z,44.41
2018-04-08T03:14:40.267Z,44.33
2018-04-08T03:15:40.322Z,44.41
2018-04-08T03:16:40.582Z,44.37
2018-04-08T03:17:40.297Z,44.32
2018-04-08T03:18:40.292Z,44.37
2018-04-08T03:19:40.304Z,44.4
2018-04-08T03:20:40.311Z,44.39
2018-04-08T03:21:40.321Z,44.37
2018-04-08T03:22:40.326Z,44.34
2018-04-08T03:23:40.291Z,44.34
2018-04-08T03:24:40.290Z,44.42
2018-04-08T03:25:40.303Z,44.39
2018-04-08T03:26:40.305Z,44.39
2018-04-08T03:27:40.299Z,44.42
2018-04-08T03:28:40.292Z,44.4
2018-04-08T03:29:40.306Z,44.37
2018-04-08T03:30:40.353Z,44.4
2018-04-08T03:31:40.304Z,44.37
2018-04-08T03:32:40.289Z,44.36
2018-04-08T03:33:40.280Z,44.37
2018-04-08T03:34:40.339Z,44.37
2018-04-08T03:35:40.291Z,44.36
2018-04-08T03:36:40.299Z,44.36
2018-04-08T03:37:40.335Z,44.35
2018-04-08T03:38:40.667Z,44.3
2018-04-08T03:39:40.251Z,44.34
2018-04-08T03:40:40.318Z,44.34
2018-04-08T03:41:40.292Z,44.4
2018-04-08T03:42:40.308Z,44.36
2018-04-08T03:43:40.275Z,44.37
2018-04-08T03:44:40.317Z,44.35
2018-04-08T03:45:40.265Z,44.31
2018-04-08T03:46:40.302Z,44.31
2018-04-08T03:47:40.295Z,44.34
2018-04-08T03:48:40.300Z,44.34
2018-04-08T03:49:40.301Z,44.33
2018-04-08T03:50:40.304Z,44.35
2018-04-08T03:51:40.262Z,44.36
2018-04-08T03:52:40.281Z,44.4
2018-04-08T03:53:40.279Z,44.36
2018-04-08T03:54:40.295Z,44.42
2018-04-08T03:55:40.281Z,44.42
2018-04-08T03:56:40.288Z,44.4
2018-04-08T03:57:40.288Z,44.43
2018-04-08T03:58:40.275Z,44.37
2018-04-08T03:59:40.254Z,44.39
2018-04-08T04:00:40.293Z,44.37
2018-04-08T04:01:40.330Z,44.35
2018-04-08T04:02:40.334Z,44.3
2018-04-08T04:03:40.279Z,44.36
2018-04-08T04:04:40.288Z,44.33
2018-04-08T04:05:40.268Z,44.32
2018-04-08T04:06:40.279Z,44.35
2018-04-08T04:07:40.273Z,44.35
2018-04-08T04:08:40.276Z,44.31
2018-04-08T04:09:40.263Z,44.35
2018-04-08T04:10:40.278Z,44.3
2018-04-08T04:11:40.296Z,44.24
2018-04-08T04:12:40.304Z,44.22
2018-04-08T04:13:40.326Z,44.14
2018-04-08T04:14:40.281Z,44.17
2018-04-08T04:15:40.298Z,44.14
2018-04-08T04:16:40.282Z,44.16
2018-04-08T04:17:40.254Z,44.13
2018-04-08T04:18:40.288Z,44.1
2018-04-08T04:19:40.270Z,44.15
2018-04-08T04:20:41.710Z,44.16
2018-04-08T04:21:40.248Z,44.02
2018-04-08T04:22:40.280Z,44.04
2018-04-08T04:23:40.294Z,44.14
2018-04-08T04:24:40.263Z,44.1
2018-04-08T04:25:40.268Z,44.08
2018-04-08T04:26:40.310Z,44.08
2018-04-08T04:27:40.292Z,44.08
2018-04-08T04:28:40.249Z,44.12
2018-04-08T04:29:40.279Z,44.15
2018-04-08T04:30:40.285Z,44.09
2018-04-08T04:31:40.265Z,44.14
2018-04-08T04:32:40.275Z,44.19
2018-04-08T04:33:40.268Z,44.08
2018-04-08T04:34:40.279Z,44.16
2018-04-08T04:35:40.282Z,44.25
2018-04-08T04:36:40.376Z,44.13
2018-04-08T04:37:40.546Z,44.15
2018-04-08T04:38:40.275Z,44.18
2018-04-08T04:39:40.274Z,44.16
2018-04-08T04:40:40.260Z,44.19
2018-04-08T04:41:40.297Z,44.21
2018-04-08T04:42:40.335Z,44.09
2018-04-08T04:43:40.269Z,44.25
2018-04-08T04:44:40.300Z,44.22
2018-04-08T04:45:40.548Z,44.24
2018-04-08T04:46:40.284Z,44.2
2018-04-08T04:47:40.296Z,44.21
2018-04-08T04:48:40.261Z,44.22
2018-04-08T04:49:40.277Z,44.22
2018-04-08T04:50:40.249Z,44.21
2018-04-08T04:51:40.337Z,44.19
2018-04-08T04:52:40.271Z,44.23
2018-04-08T04:53:40.240Z,44.23
2018-04-08T04:54:40.264Z,44.21
2018-04-08T04:55:40.257Z,44.22
2018-04-08T04:56:40.279Z,44.24
2018-04-08T04:57:40.242Z,44.19
2018-04-08T04:58:40.321Z,44.21
2018-04-08T04:59:40.327Z,44.22
2018-04-08T05:00:40.276Z,44.21
2018-04-08T05:01:40.284Z,44.21
2018-04-08T05:02:40.264Z,44.22
2018-04-08T05:03:40.635Z,44.21
2018-04-08T05:04:40.244Z,44.24
2018-04-08T05:05:40.253Z,44.19
2018-04-08T05:06:40.262Z,44.18
2018-04-08T05:07:40.280Z,44.25
2018-04-08T05:08:40.284Z,44.21
2018-04-08T05:09:40.301Z,44.21
2018-04-08T05:10:40.278Z,44.23
2018-04-08T05:11:40.251Z,44.18
2018-04-08T05:12:40.275Z,44.2
2018-04-08T05:13:40.330Z,44.17
2018-04-08T05:14:40.238Z,44.23
2018-04-08T05:15:40.250Z,44.21
2018-04-08T05:16:40.272Z,44.19
2018-04-08T05:17:40.254Z,44.16
2018-04-08T05:18:40.254Z,44.19
2018-04-08T05:19:40.265Z,44.17
2018-04-08T05:20:40.287Z,44.15
2018-04-08T05:21:40.255Z,44.21
2018-04-08T05:22:40.258Z,44.17
2018-04-08T05:23:40.248Z,44.18
2018-04-08T05:24:40.260Z,44.21
2018-04-08T05:25:40.259Z,44.18
2018-04-08T05:26:40.279Z,44.19
2018-04-08T05:27:40.263Z,44.21
2018-04-08T05:28:40.284Z,44.18
2018-04-08T05:29:40.302Z,44.18
2018-04-08T05:30:40.287Z,44.18
2018-04-08T05:31:40.280Z,44.17
2018-04-08T05:32:40.241Z,44.16
2018-04-08T05:33:40.271Z,44.19
2018-04-08T05:34:40.259Z,44.17
2018-04-08T05:35:40.239Z,44.21
2018-04-08T05:36:40.232Z,44.16
2018-04-08T05:37:40.297Z,44.21
2018-04-08T05:38:40.225Z,44.22
2018-04-08T05:39:40.269Z,44.19
2018-04-08T05:40:40.289Z,44.16
2018-04-08T05:41:40.280Z,44.19
2018-04-08T05:42:40.244Z,44.2
2018-04-08T05:43:40.263Z,44.17
2018-04-08T05:44:40.324Z,44.22
2018-04-08T05:45:40.258Z,44.22
2018-04-08T05:46:40.271Z,44.23
2018-04-08T05:47:40.275Z,44.19
2018-04-08T05:48:40.286Z,44.23
2018-04-08T05:49:40.262Z,44.23
2018-04-08T05:50:40.265Z,44.17
2018-04-08T05:51:40.261Z,44.2
2018-04-08T05:52:40.274Z,44.17
2018-04-08T05:53:40.248Z,44.19
2018-04-08T05:54:40.209Z,44.21
2018-04-08T05:55:40.226Z,44.22
2018-04-08T05:56:40.241Z,44.21
2018-04-08T05:57:40.216Z,44.21
2018-04-08T05:58:40.272Z,44.18
2018-04-08T05:59:40.222Z,44.22
2018-04-08T06:00:40.257Z,44.22
2018-04-08T06:01:40.227Z,44.2
2018-04-08T06:02:40.249Z,44.2
2018-04-08T06:03:40.276Z,44.2
2018-04-08T06:04:40.261Z,44.18
2018-04-08T06:05:40.273Z,44.19
2018-04-08T06:06:40.277Z,44.24
2018-04-08T06:07:40.303Z,44.16
2018-04-08T06:08:40.215Z,44.19
2018-04-08T06:09:40.236Z,44.22
2018-04-08T06:10:40.286Z,44.2
2018-04-08T06:11:40.246Z,44.18
2018-04-08T06:12:40.231Z,44.27
2018-04-08T06:13:40.283Z,44.2
2018-04-08T06:14:40.239Z,44.22
2018-04-08T06:15:40.567Z,44.27
2018-04-08T06:16:40.222Z,44.19
2018-04-08T06:17:40.760Z,44.15
2018-04-08T06:18:40.228Z,44.26
2018-04-08T06:19:40.256Z,44.21
2018-04-08T06:20:40.264Z,44.21
2018-04-08T06:21:40.288Z,44.24
2018-04-08T06:22:40.219Z,44.21
2018-04-08T06:23:40.213Z,44.16
2018-04-08T06:24:40.238Z,44.22
2018-04-08T06:25:40.275Z,44.17
2018-04-08T06:26:40.214Z,44.19
2018-04-08T06:27:40.248Z,44.21
2018-04-08T06:28:40.306Z,44.2
2018-04-08T06:29:40.211Z,44.14
2018-04-08T06:30:40.290Z,44.22
2018-04-08T06:31:40.250Z,44.19
2018-04-08T06:32:40.241Z,44.17
2018-04-08T06:33:40.337Z,44.27
2018-04-08T06:34:40.270Z,44.17
2018-04-08T06:35:40.219Z,44.17
2018-04-08T06:36:40.243Z,44.21
2018-04-08T06:37:40.342Z,44.19
2018-04-08T06:38:40.300Z,44.13
2018-04-08T06:39:40.226Z,44.21
2018-04-08T06:40:40.234Z,44.2
2018-04-08T06:41:40.196Z,44.16
2018-04-08T06:42:40.234Z,44.21
2018-04-08T06:43:40.240Z,44.19
2018-04-08T06:44:40.242Z,44.16
2018-04-08T06:45:40.255Z,44.21
2018-04-08T06:46:40.237Z,44.2
2018-04-08T06:47:40.238Z,44.13
2018-04-08T06:48:40.245Z,44.22
2018-04-08T06:49:40.239Z,44.15
2018-04-08T06:50:40.256Z,44.16
2018-04-08T06:51:40.253Z,44.18
2018-04-08T06:52:40.238Z,44.17
2018-04-08T06:53:40.255Z,44.18
2018-04-08T06:54:40.242Z,44.21
2018-04-08T06:55:40.447Z,44.16
2018-04-08T06:56:40.234Z,44.17
2018-04-08T06:57:40.269Z,44.22
2018-04-08T06:58:40.235Z,44.14
2018-04-08T06:59:40.247Z,44.18
2018-04-08T07:00:40.275Z,44.23
2018-04-08T07:01:40.210Z,44.16
2018-04-08T07:02:40.243Z,44.16
2018-04-08T07:03:40.258Z,44.25
2018-04-08T07:04:40.238Z,44.17
2018-04-08T07:05:40.250Z,44.15
2018-04-08T07:06:40.228Z,44.22
2018-04-08T07:07:40.238Z,44.17
2018-04-08T07:08:40.249Z,44.15
2018-04-08T07:09:40.206Z,44.17
2018-04-08T07:10:40.288Z,44.14
2018-04-08T07:11:40.213Z,44.13
2018-04-08T07:12:40.250Z,44.18
2018-04-08T07:13:40.226Z,44.16
2018-04-08T07:14:40.239Z,44.14
2018-04-08T07:15:40.210Z,44.21
2018-04-08T07:16:40.252Z,44.16
2018-04-08T07:17:40.244Z,44.15
2018-04-08T07:18:40.237Z,44.16
2018-04-08T07:19:40.203Z,44.16
2018-04-08T07:20:40.217Z,44.15
2018-04-08T07:21:40.316Z,44.18
2018-04-08T07:22:40.215Z,44.14
2018-04-08T07:23:40.228Z,44.15
2018-04-08T07:24:40.985Z,44.18
2018-04-08T07:25:40.219Z,44.16
2018-04-08T07:26:40.296Z,44.1
2018-04-08T07:27:40.260Z,44.18
2018-04-08T07:28:40.240Z,44.14
2018-04-08T07:29:40.266Z,44.15
2018-04-08T07:30:40.283Z,44.17
2018-04-08T07:31:40.197Z,44.13
2018-04-08T07:32:40.615Z,44.14
2018-04-08T07:33:40.228Z,44.17
2018-04-08T07:34:40.219Z,44.15
2018-04-08T07:35:40.201Z,44.17
2018-04-08T07:36:40.294Z,44.17
2018-04-08T07:37:40.231Z,44.14
2018-04-08T07:38:40.210Z,44.14
2018-04-08T07:39:40.219Z,44.2
2018-04-08T07:40:40.214Z,44.09
2018-04-08T07:41:40.279Z,44.09
2018-04-08T07:42:40.225Z,44.19
2018-04-08T07:43:40.223Z,44.11
2018-04-08T07:44:40.570Z,44.11
2018-04-08T07:45:40.163Z,44.21
2018-04-08T07:46:40.176Z,44.21
2018-04-08T07:47:40.247Z,44.21
2018-04-08T07:48:40.204Z,44.29
2018-04-08T07:49:40.225Z,44.23
2018-04-08T07:50:40.210Z,44.19
2018-04-08T07:51:40.213Z,44.3
2018-04-08T07:52:40.232Z,44.37
2018-04-08T07:53:40.223Z,44.28
2018-04-08T07:54:40.252Z,44.41
2018-04-08T07:55:40.238Z,44.43
2018-04-08T07:56:40.212Z,44.36
2018-04-08T07:57:40.197Z,44.44
2018-04-08T07:58:40.205Z,44.44
2018-04-08T07:59:40.210Z,44.52
2018-04-08T08:00:40.214Z,44.67
2018-04-08T08:01:40.360Z,44.52
2018-04-08T08:02:40.216Z,44.6
2018-04-08T08:03:40.095Z,44.68
2018-04-08T08:04:40.229Z,44.56
2018-04-08T08:05:40.278Z,44.51
2018-04-08T08:06:40.213Z,44.49
2018-04-08T08:07:40.230Z,44.45
2018-04-08T08:08:40.335Z,44.45
2018-04-08T08:09:40.214Z,44.5
2018-04-08T08:10:40.576Z,44.28
2018-04-08T08:11:40.196Z,44.3
2018-04-08T08:12:40.229Z,44.29
2018-04-08T08:13:40.218Z,44.26
2018-04-08T08:14:40.231Z,44.27
2018-04-08T08:15:40.232Z,44.39
2018-04-08T08:16:40.195Z,44.25
2018-04-08T08:17:40.205Z,44.26
2018-04-08T08:18:40.243Z,44.32
2018-04-08T08:19:40.205Z,44.24
2018-04-08T08:20:40.237Z,44.22
2018-04-08T08:21:40.194Z,44.3
2018-04-08T08:22:40.249Z,44.25
2018-04-08T08:23:40.613Z,44.24
2018-04-08T08:24:40.205Z,44.31
2018-04-08T08:25:40.198Z,44.27
2018-04-08T08:26:40.199Z,44.2
2018-04-08T08:27:40.219Z,44.3
2018-04-08T08:28:40.192Z,44.55
2018-04-08T08:29:40.191Z,44.63
2018-04-08T08:30:40.273Z,44.59
2018-04-08T08:31:40.198Z,44.57
2018-04-08T08:32:40.199Z,44.59
2018-04-08T08:33:40.229Z,44.43
2018-04-08T08:34:40.214Z,44.48
2018-04-08T08:35:40.211Z,44.52
2018-04-08T08:36:40.210Z,44.35
2018-04-08T08:37:40.188Z,44.46
2018-04-08T08:38:40.424Z,44.43
2018-04-08T08:39:40.304Z,44.39
2018-04-08T08:40:40.181Z,44.29
2018-04-08T08:41:40.510Z,44.18
2018-04-08T08:42:40.320Z,44.15
2018-04-08T08:43:40.529Z,44.2
2018-04-08T08:44:40.220Z,44.33
2018-04-08T08:45:40.187Z,44.12
2018-04-08T08:46:40.478Z,44.16
2018-04-08T08:47:40.184Z,44.2
2018-04-08T08:48:40.219Z,44.21
2018-04-08T08:49:40.246Z,44.21
2018-04-08T08:50:40.175Z,44.72
2018-04-08T08:51:40.241Z,44.58
2018-04-08T08:52:40.201Z,44.53
2018-04-08T08:53:40.212Z,44.35
2018-04-08T08:54:40.181Z,44.33
2018-04-08T08:55:40.219Z,44.71
2018-04-08T08:56:40.207Z,44.63
2018-04-08T08:57:40.178Z,44.39
2018-04-08T08:58:40.198Z,44.94
2018-04-08T08:59:40.201Z,45.06
2018-04-08T09:00:40.202Z,45.5
2018-04-08T09:01:40.201Z,45.13
2018-04-08T09:02:40.199Z,44.5
2018-04-08T09:03:40.189Z,44.4
2018-04-08T09:04:40.189Z,44.48
2018-04-08T09:05:40.186Z,44.51
2018-04-08T09:06:40.988Z,44.47
2018-04-08T09:07:40.194Z,44.48
2018-04-08T09:08:40.200Z,44.93
2018-04-08T09:09:40.185Z,44.65
2018-04-08T09:10:40.189Z,44.56
2018-04-08T09:11:40.195Z,44.92
2018-04-08T09:12:40.184Z,44.91
2018-04-08T09:13:40.184Z,44.89
2018-04-08T09:14:40.193Z,45.02
2018-04-08T09:15:40.204Z,45
2018-04-08T09:16:40.226Z,44.99
2018-04-08T09:17:40.202Z,44.98
2018-04-08T09:18:40.234Z,45.06
2018-04-08T09:19:40.204Z,45.06
2018-04-08T09:20:40.216Z,44.94
2018-04-08T09:21:40.287Z,44.97
2018-04-08T09:22:40.204Z,44.99
2018-04-08T09:23:40.188Z,44.85
2018-04-08T09:24:40.226Z,44.8
2018-04-08T09:25:40.187Z,44.76
2018-04-08T09:26:40.490Z,44.87
2018-04-08T09:27:40.182Z,44.77
2018-04-08T09:28:40.159Z,44.77
2018-04-08T09:29:40.578Z,44.79
2018-04-08T09:30:40.245Z,44.97
2018-04-08T09:31:40.176Z,44.84
2018-04-08T09:32:40.183Z,44.69
2018-04-08T09:33:40.180Z,44.63
2018-04-08T09:34:40.214Z,44.6
2018-04-08T09:35:40.199Z,44.94
2018-04-08T09:36:40.187Z,45.02
2018-04-08T09:37:40.171Z,45.04
2018-04-08T09:38:40.179Z,44.97
2018-04-08T09:39:40.204Z,44.98
2018-04-08T09:40:40.181Z,45.16
2018-04-08T09:41:40.179Z,45.11
2018-04-08T09:42:40.212Z,44.83
2018-04-08T09:43:40.195Z,44.9
2018-04-08T09:44:40.178Z,45.01
2018-04-08T09:45:40.692Z,44.95
2018-04-08T09:46:40.193Z,45.05
2018-04-08T09:47:40.172Z,45.13
2018-04-08T09:48:40.238Z,45.08
2018-04-08T09:49:40.172Z,45.1
2018-04-08T09:50:40.228Z,45.17
2018-04-08T09:51:40.266Z,44.91
2018-04-08T09:52:40.196Z,45
2018-04-08T09:53:40.156Z,45.03
2018-04-08T09:54:40.205Z,45.02
2018-04-08T09:55:40.181Z,45.05
2018-04-08T09:56:40.187Z,45.11
2018-04-08T09:57:40.188Z,44.96
2018-04-08T09:58:40.160Z,45.08
2018-04-08T09:59:40.161Z,45.01
2018-04-08T10:00:40.168Z,45.04
2018-04-08T10:01:40.165Z,45.07
2018-04-08T10:02:40.178Z,45.04
2018-04-08T10:03:40.236Z,44.94
2018-04-08T10:04:40.173Z,45.05
2018-04-08T10:05:41.016Z,44.93
2018-04-08T10:06:40.186Z,45.06
2018-04-08T10:07:40.196Z,45.14
2018-04-08T10:08:40.170Z,45.07
2018-04-08T10:09:40.171Z,45.02
2018-04-08T10:10:22.365Z,45.52
2018-04-08T10:11:22.324Z,44.54
2018-04-08T10:12:22.227Z,44.55
2018-04-08T10:13:22.182Z,44.52
2018-04-08T10:14:22.155Z,44.57
2018-04-08T10:15:22.314Z,44.64
2018-04-08T10:16:15.826Z,44.57
2018-04-08T10:17:15.839Z,44.9
2018-04-08T10:18:15.706Z,44.66
2018-04-08T10:19:15.779Z,44.52
2018-04-08T10:20:15.701Z,44.5
2018-04-08T10:21:15.545Z,44.49
2018-04-08T10:22:00.759Z,44.41
2018-04-08T10:23:01.068Z,44.29
2018-04-08T10:24:00.695Z,44.27
2018-04-08T10:25:00.665Z,44.43
2018-04-08T10:26:00.660Z,44.53
2018-04-08T10:27:00.738Z,44.34
2018-04-08T10:28:00.730Z,44.38
2018-04-08T10:29:01.107Z,44.4
2018-04-08T10:30:00.680Z,44.59
2018-04-08T10:31:00.736Z,44.58
2018-04-08T10:32:00.914Z,44.67
2018-04-08T10:33:00.611Z,44.93
2018-04-08T10:34:00.726Z,44.77
2018-04-08T10:35:00.594Z,44.64
2018-04-08T10:36:00.818Z,44.69
2018-04-08T10:37:00.952Z,44.69
2018-04-08T10:38:00.767Z,45.02
2018-04-08T10:39:00.923Z,44.8
2018-04-08T10:40:00.607Z,45.1
2018-04-08T10:41:00.681Z,45
2018-04-08T10:42:00.794Z,45.07
2018-04-08T10:43:01.004Z,44.99
2018-04-08T10:44:00.774Z,45.04
2018-04-08T10:45:00.913Z,45.12
2018-04-08T10:46:00.797Z,45.33
2018-04-08T10:47:01.182Z,45.45
2018-04-08T10:48:00.915Z,45.17
2018-04-08T10:49:00.733Z,45.56
2018-04-08T10:50:00.549Z,45.45
2018-04-08T10:51:00.770Z,45.29
2018-04-08T10:52:00.654Z,45.47
2018-04-08T10:53:00.607Z,45.49
2018-04-08T10:54:00.860Z,45.67
2018-04-08T10:55:00.589Z,45.59
2018-04-08T10:56:00.727Z,45.53
2018-04-08T10:57:00.595Z,45.56
2018-04-08T10:58:00.616Z,45.66
2018-04-08T10:59:12.804Z,45.32
2018-04-08T11:00:12.551Z,45.25
2018-04-08T11:01:12.673Z,45.25
2018-04-08T11:02:12.600Z,45.35
2018-04-08T11:03:12.734Z,45.51
2018-04-08T11:04:12.730Z,45.76
2018-04-08T11:05:12.620Z,45.51
2018-04-08T11:06:12.519Z,45.49
2018-04-08T11:07:12.969Z,45.65
2018-04-08T11:08:12.704Z,45.83
2018-04-08T11:09:13.009Z,45.67
2018-04-08T11:10:12.997Z,45.87
2018-04-08T11:11:12.773Z,45.86
2018-04-08T11:12:12.799Z,45.83
2018-04-08T11:13:12.790Z,45.96
2018-04-08T11:14:12.756Z,46.05
2018-04-08T11:15:12.635Z,45.89
2018-04-08T11:16:12.786Z,45.88
2018-04-08T11:17:12.613Z,45.89
2018-04-08T11:18:12.638Z,45.69
2018-04-08T11:19:12.872Z,45.87
2018-04-08T11:20:13.586Z,45.94
2018-04-08T11:21:12.696Z,45.82
2018-04-08T11:22:12.894Z,45.87
2018-04-08T11:23:12.685Z,45.59
2018-04-08T11:24:12.778Z,45.31
2018-04-08T11:25:12.616Z,45.34
2018-04-08T11:26:12.648Z,45.47
2018-04-08T11:27:12.619Z,45.15
2018-04-08T11:28:12.681Z,45.39
2018-04-08T11:29:12.565Z,45.35
2018-04-08T11:30:12.878Z,45.24
2018-04-08T11:31:12.829Z,45.19
2018-04-08T11:32:12.699Z,45.03
2018-04-08T11:33:12.866Z,45.02
2018-04-08T11:34:12.677Z,45.18
2018-04-08T11:35:12.762Z,44.9
2018-04-08T11:36:12.582Z,44.98
2018-04-08T11:37:12.776Z,45.08
2018-04-08T11:38:12.748Z,45.23
2018-04-08T11:39:12.762Z,45.35
2018-04-08T11:40:12.897Z,45.38
2018-04-08T11:41:13.105Z,45.45
2018-04-08T11:42:12.617Z,45.28
2018-04-08T11:43:12.631Z,45.3
2018-04-08T11:44:12.608Z,45.22
2018-04-08T11:45:12.963Z,45.22
2018-04-08T11:46:12.833Z,45.22
2018-04-08T11:47:13.098Z,45.22
2018-04-08T11:48:12.650Z,45.07
2018-04-08T11:49:12.666Z,45.05
2018-04-08T11:50:12.555Z,44.88
2018-04-08T11:51:12.614Z,44.91
2018-04-08T11:52:12.722Z,44.96
2018-04-08T11:53:12.553Z,44.96
2018-04-08T11:54:12.702Z,45.07
2018-04-08T11:55:12.561Z,44.93
2018-04-08T11:56:12.571Z,44.98
2018-04-08T11:57:12.549Z,45.01
2018-04-08T11:58:12.977Z,45.06
2018-04-08T11:59:12.649Z,45.04
2018-04-08T12:00:12.760Z,45.01
2018-04-08T12:01:12.637Z,45.13
2018-04-08T12:02:12.717Z,45.02
2018-04-08T12:03:12.567Z,44.98
2018-04-08T12:04:12.547Z,44.97
2018-04-08T12:05:12.574Z,45.01
2018-04-08T12:06:12.703Z,44.95
2018-04-08T12:07:12.711Z,45.02
2018-04-08T12:08:12.719Z,45.06
2018-04-08T12:09:12.764Z,45.08
2018-04-08T12:10:12.663Z,45.04
2018-04-08T12:11:12.577Z,45.08
2018-04-08T12:12:12.710Z,45.08
2018-04-08T12:13:12.737Z,45.09
2018-04-08T12:14:12.754Z,45.06
2018-04-08T12:15:12.570Z,45
2018-04-08T12:16:12.712Z,45.01
2018-04-08T12:17:12.713Z,45.06
2018-04-08T12:18:12.539Z,45.02
2018-04-08T12:19:12.744Z,45
2018-04-08T12:20:12.657Z,45
2018-04-08T12:21:12.545Z,45
2018-04-08T12:22:12.758Z,45.01
2018-04-08T12:23:12.571Z,44.99
2018-04-08T12:24:12.657Z,44.97
2018-04-08T12:25:12.553Z,44.99
2018-04-08T12:26:12.671Z,44.92
2018-04-08T12:27:12.749Z,44.87
2018-04-08T12:28:12.724Z,44.9
2018-04-08T12:29:12.736Z,44.84
2018-04-08T12:30:12.613Z,44.86
2018-04-08T12:31:12.631Z,44.89
2018-04-08T12:32:12.571Z,44.8
2018-04-08T12:33:12.507Z,44.79
2018-04-08T12:34:12.501Z,44.77
2018-04-08T12:35:12.522Z,44.74
2018-04-08T12:36:12.525Z,44.78
2018-04-08T12:37:12.613Z,44.8
2018-04-08T12:38:12.511Z,44.75
2018-04-08T12:39:12.554Z,44.76
2018-04-08T12:40:12.376Z,44.76
2018-04-08T12:41:12.549Z,44.75
2018-04-08T12:42:12.656Z,44.72
2018-04-08T12:43:12.621Z,44.74
2018-04-08T12:44:12.527Z,44.62
2018-04-08T12:45:12.840Z,44.54
2018-04-08T12:46:12.573Z,44.52
2018-04-08T12:47:12.520Z,44.45
2018-04-08T12:48:12.524Z,44.46
2018-04-08T12:49:12.577Z,44.46
2018-04-08T12:50:12.820Z,44.51
2018-04-08T12:51:12.575Z,44.45
2018-04-08T12:52:12.575Z,44.55
2018-04-08T12:53:12.515Z,44.53
2018-04-08T12:54:12.595Z,44.54
2018-04-08T12:55:12.582Z,44.62